Time,TemperatureF,DewpointF,PressureIn,WindDirection,WindDirectionDegrees,WindSpeedMPH,WindSpeedGustMPH,Humidity,HourlyPrecipIn,Conditions,Clouds,dailyrainin,SolarRadiationWatts/m^2,SoftwareType,DateUTC
2013-09-12 00:02:00,71.5,68.0,29.95,SSE,157,0.0,1.0,89,0.00,,,0.00,0,HR-IXP-WINDi_r2_v1.2,2013-09-12 05:02:00,
2013-09-12 00:08:00,71.5,68.0,29.95,SSE,157,0.0,0.0,89,0.00,,,0.00,0,HR-IXP-WINDi_r2_v1.2,2013-09-12 05:08:00,
2013-09-12 00:13:00,71.4,67.9,29.95,SSE,157,0.0,0.0,89,0.00,,,0.00,0,HR-IXP-WINDi_r2_v1.2,2013-09-12 05:13:00,
2013-09-12 00:18:00,71.3,67.8,29.95,SSE,157,0.0,0.0,89,0.00,,,0.00,0,HR-IXP-WINDi_r2_v1.2,2013-09-12 05:18:00,
2013-09-12 00:23:00,71.3,67.8,29.95,SSE,157,0.0,1.0,89,0.00,,,0.00,0,HR-IXP-WINDi_r2_v1.2,2013-09-12 05:23:00,
2013-09-12 00:28:00,71.4,67.9,29.95,SSE,157,0.0,1.0,89,0.00,,,0.00,0,HR-IXP-WINDi_r2_v1.2,2013-09-12 05:28:00,
2013-09-12 00:33:00,71.5,68.3,29.95,SSE,157,0.0,1.0,90,0.00,,,0.00,0,HR-IXP-WINDi_r2_v1.2,2013-09-12 05:33:00,
2013-09-12 00:39:00,71.5,68.3,29.95,SSE,158,0.0,1.0,90,0.00,,,0.00,0,HR-IXP-WINDi_r2_v1.2,2013-09-12 05:39:00,
2013-09-12 00:44:00,71.5,68.3,29.95,NW,312,0.0,4.0,90,0.00,,,0.00,0,HR-IXP-WINDi_r2_v1.2,2013-09-12 05:44:00,
2013-09-12 00:49:00,71.6,68.8,29.95,NW,305,0.0,4.0,91,0.00,,,0.00,0,HR-IXP-WINDi_r2_v1.2,2013-09-12 05:49:00,
2013-09-12 00:54:00,71.6,68.8,29.95,NW,305,0.0,3.0,91,0.00,,,0.00,0,HR-IXP-WINDi_r2_v1.2,2013-09-12 05:54:00,
2013-09-12 00:59:00,71.6,68.8,29.95,NW,305,0.0,3.0,91,0.00,,,0.00,0,HR-IXP-WINDi_r2_v1.2,2013-09-12 05:59:00,
2013-09-12 01:05:00,71.6,68.8,29.95,NW,304,1.0,4.0,91,0.00,,,0.00,0,HR-IXP-WINDi_r2_v1.2,2013-09-12 06:05:00,
2013-09-12 01:10:00,71.6,68.8,29.94,NW,304,0.0,4.0,91,0.00,,,0.00,0,HR-IXP-WINDi_r2_v1.2,2013-09-12 06:10:00,
2013-09-12 01:15:00,71.6,68.8,29.94,NW,304,0.0,3.0,91,0.00,,,0.00,0,HR-IXP-WINDi_r2_v1.2,2013-09-12 06:15:00,
2013-09-12 01:20:00,71.6,68.8,29.94,NW,304,0.0,2.0,91,0.00,,,0.00,0,HR-IXP-WINDi_r2_v1.2,2013-09-12 06:20:00,
2013-09-12 01:25:00,71.6,68.8,29.94,NW,304,0.0,2.0,91,0.00,,,0.00,0,HR-IXP-WINDi_r2_v1.2,2013-09-12 06:25:00,
2013-09-12 01:30:00,71.7,68.9,29.93,NW,304,0.0,2.0,91,0.00,,,0.00,0,HR-IXP-WINDi_r2_v1.2,2013-09-12 06:30:00,
2013-09-12 01:36:00,71.7,68.9,29.93,NW,304,0.0,2.0,91,0.00,,,0.00,0,HR-IXP-WINDi_r2_v1.2,2013-09-12 06:36:00,
2013-09-12 01:41:00,71.7,68.9,29.93,NW,304,0.0,1.0,91,0.00,,,0.00,0,HR-IXP-WINDi_r2_v1.2,2013-09-12 06:41:00,
2013-09-12 01:46:00,71.6,68.8,29.93,NW,304,0.0,1.0,91,0.00,,,0.00,0,HR-IXP-WINDi_r2_v1.2,2013-09-12 06:46:00,
2013-09-12 01:51:00,71.6,69.1,29.93,NW,304,0.0,1.0,92,0.00,,,0.00,0,HR-IXP-WINDi_r2_v1.2,2013-09-12 06:51:00,
2013-09-12 01:56:00,71.5,69.0,29.93,NW,304,0.0,1.0,92,0.00,,,0.00,0,HR-IXP-WINDi_r2_v1.2,2013-09-12 06:56:00,
2013-09-12 02:01:00,71.5,69.0,29.93,NW,304,0.0,1.0,92,0.00,,,0.00,0,HR-IXP-WINDi_r2_v1.2,2013-09-12 07:01:00,
2013-09-12 02:06:00,71.4,68.9,29.93,NW,304,0.0,1.0,92,0.00,,,0.00,0,HR-IXP-WINDi_r2_v1.2,2013-09-12 07:06:00,
2013-09-12 02:11:00,71.3,68.8,29.92,NW,304,0.0,1.0,92,0.00,,,0.00,0,HR-IXP-WINDi_r2_v1.2,2013-09-12 07:11:00,
2013-09-12 02:17:00,71.3,68.8,29.93,NW,304,0.0,1.0,92,0.00,,,0.00,0,HR-IXP-WINDi_r2_v1.2,2013-09-12 07:17:00,
2013-09-12 02:22:00,71.3,68.8,29.92,NW,304,0.0,1.0,92,0.00,,,0.00,0,HR-IXP-WINDi_r2_v1.2,2013-09-12 07:22:00,
2013-09-12 02:27:00,71.3,68.8,29.92,NW,304,0.0,1.0,92,0.00,,,0.00,0,HR-IXP-WINDi_r2_v1.2,2013-09-12 07:27:00,
2013-09-12 02:32:00,71.2,68.7,29.92,NW,304,0.0,2.0,92,0.00,,,0.00,0,HR-IXP-WINDi_r2_v1.2,2013-09-12 07:32:00,
2013-09-12 02:37:00,71.1,68.6,29.92,NW,304,0.0,2.0,92,0.00,,,0.00,0,HR-IXP-WINDi_r2_v1.2,2013-09-12 07:37:00,
2013-09-12 02:42:00,71.1,68.6,29.92,NW,304,0.0,1.0,92,0.00,,,0.00,0,HR-IXP-WINDi_r2_v1.2,2013-09-12 07:42:00,
2013-09-12 02:48:00,71.1,68.6,29.92,NW,304,0.0,1.0,92,0.00,,,0.00,0,HR-IXP-WINDi_r2_v1.2,2013-09-12 07:48:00,
2013-09-12 02:53:00,71.0,68.5,29.92,NW,304,0.0,0.0,92,0.00,,,0.00,0,HR-IXP-WINDi_r2_v1.2,2013-09-12 07:53:00,
2013-09-12 02:58:00,70.9,68.7,29.91,NW,304,0.0,0.0,93,0.00,,,0.00,0,HR-IXP-WINDi_r2_v1.2,2013-09-12 07:58:00,
2013-09-12 03:03:00,70.8,68.6,29.91,NW,304,0.0,1.0,93,0.00,,,0.00,0,HR-IXP-WINDi_r2_v1.2,2013-09-12 08:03:00,
2013-09-12 03:08:00,70.8,68.6,29.92,NW,304,0.0,1.0,93,0.00,,,0.00,0,HR-IXP-WINDi_r2_v1.2,2013-09-12 08:08:00,
2013-09-12 03:13:00,70.7,68.5,29.92,NW,304,0.0,1.0,93,0.00,,,0.00,0,HR-IXP-WINDi_r2_v1.2,2013-09-12 08:13:00,
2013-09-12 03:19:00,70.7,68.5,29.91,NW,304,0.0,1.0,93,0.00,,,0.00,0,HR-IXP-WINDi_r2_v1.2,2013-09-12 08:19:00,
2013-09-12 03:24:00,70.6,68.4,29.91,NW,304,0.0,1.0,93,0.00,,,0.00,0,HR-IXP-WINDi_r2_v1.2,2013-09-12 08:24:00,
2013-09-12 03:29:00,70.6,68.4,29.91,NW,304,0.0,1.0,93,0.00,,,0.00,0,HR-IXP-WINDi_r2_v1.2,2013-09-12 08:29:00,
2013-09-12 03:34:00,70.6,68.4,29.91,NW,304,0.0,1.0,93,0.00,,,0.00,0,HR-IXP-WINDi_r2_v1.2,2013-09-12 08:34:00,
2013-09-12 03:39:00,70.5,68.3,29.91,NW,304,0.0,1.0,93,0.00,,,0.00,0,HR-IXP-WINDi_r2_v1.2,2013-09-12 08:39:00,
2013-09-12 03:44:00,70.4,68.2,29.91,NW,304,0.0,1.0,93,0.00,,,0.00,0,HR-IXP-WINDi_r2_v1.2,2013-09-12 08:44:00,
2013-09-12 03:49:00,70.4,68.2,29.91,NW,304,0.0,1.0,93,0.00,,,0.00,0,HR-IXP-WINDi_r2_v1.2,2013-09-12 08:49:00,
2013-09-12 03:55:00,70.3,68.1,29.91,NW,304,0.0,1.0,93,0.00,,,0.00,0,HR-IXP-WINDi_r2_v1.2,2013-09-12 08:55:00,
2013-09-12 04:00:00,70.2,68.3,29.91,NW,304,0.0,1.0,94,0.00,,,0.00,0,HR-IXP-WINDi_r2_v1.2,2013-09-12 09:00:00,
2013-09-12 04:05:00,70.2,68.3,29.91,NW,304,0.0,0.0,94,0.00,,,0.00,0,HR-IXP-WINDi_r2_v1.2,2013-09-12 09:05:00,
2013-09-12 04:10:00,70.1,68.2,29.92,NW,304,0.0,0.0,94,0.00,,,0.00,0,HR-IXP-WINDi_r2_v1.2,2013-09-12 09:10:00,
2013-09-12 04:15:00,70.1,68.2,29.92,NW,304,0.0,1.0,94,0.00,,,0.00,0,HR-IXP-WINDi_r2_v1.2,2013-09-12 09:15:00,
2013-09-12 04:20:00,70.0,68.1,29.92,NW,304,0.0,2.0,94,0.00,,,0.00,0,HR-IXP-WINDi_r2_v1.2,2013-09-12 09:20:00,
2013-09-12 04:25:00,70.0,68.1,29.92,NW,304,1.0,2.0,94,0.00,,,0.00,0,HR-IXP-WINDi_r2_v1.2,2013-09-12 09:25:00,
2013-09-12 04:31:00,70.0,68.1,29.92,WNW,293,3.0,6.0,94,0.00,,,0.00,0,HR-IXP-WINDi_r2_v1.2,2013-09-12 09:31:00,
2013-09-12 04:36:00,70.1,68.2,29.92,WNW,293,3.0,6.0,94,0.00,,,0.00,0,HR-IXP-WINDi_r2_v1.2,2013-09-12 09:36:00,
2013-09-12 04:41:00,70.3,68.4,29.92,WNW,294,2.0,6.0,94,0.00,,,0.00,0,HR-IXP-WINDi_r2_v1.2,2013-09-12 09:41:00,
2013-09-12 04:46:00,70.5,68.6,29.92,WNW,294,0.0,6.0,94,0.00,,,0.00,0,HR-IXP-WINDi_r2_v1.2,2013-09-12 09:46:00,
2013-09-12 04:51:00,70.6,68.7,29.92,WNW,297,4.0,5.0,94,0.00,,,0.00,0,HR-IXP-WINDi_r2_v1.2,2013-09-12 09:51:00,
2013-09-12 04:56:00,70.7,68.8,29.92,WNW,296,2.0,5.0,94,0.00,,,0.00,0,HR-IXP-WINDi_r2_v1.2,2013-09-12 09:56:00,
2013-09-12 05:01:00,70.7,68.8,29.92,WNW,296,3.0,4.0,94,0.00,,,0.00,0,HR-IXP-WINDi_r2_v1.2,2013-09-12 10:01:00,
2013-09-12 05:07:00,70.7,68.8,29.92,WNW,300,2.0,5.0,94,0.00,,,0.00,0,HR-IXP-WINDi_r2_v1.2,2013-09-12 10:07:00,
2013-09-12 05:12:00,70.8,68.9,29.92,WNW,300,1.0,5.0,94,0.00,,,0.00,0,HR-IXP-WINDi_r2_v1.2,2013-09-12 10:12:00,
2013-09-12 05:17:00,70.7,68.8,29.93,WNW,300,0.0,4.0,94,0.00,,,0.00,0,HR-IXP-WINDi_r2_v1.2,2013-09-12 10:17:00,
2013-09-12 05:22:00,70.7,68.5,29.93,WNW,300,0.0,3.0,93,0.00,,,0.00,0,HR-IXP-WINDi_r2_v1.2,2013-09-12 10:22:00,
2013-09-12 05:27:00,70.6,68.7,29.93,WNW,300,0.0,3.0,94,0.00,,,0.00,0,HR-IXP-WINDi_r2_v1.2,2013-09-12 10:27:00,
2013-09-12 05:32:00,70.5,68.6,29.93,WNW,299,2.0,4.0,94,0.00,,,0.00,0,HR-IXP-WINDi_r2_v1.2,2013-09-12 10:32:00,
2013-09-12 05:37:00,70.4,68.5,29.93,WNW,303,2.0,6.0,94,0.00,,,0.00,0,HR-IXP-WINDi_r2_v1.2,2013-09-12 10:37:00,
2013-09-12 05:43:00,70.4,68.5,29.93,West,277,0.0,6.0,94,0.00,,,0.00,0,HR-IXP-WINDi_r2_v1.2,2013-09-12 10:43:00,
2013-09-12 05:48:00,70.3,68.1,29.93,WNW,303,1.0,4.0,93,0.00,,,0.00,0,HR-IXP-WINDi_r2_v1.2,2013-09-12 10:48:00,
2013-09-12 05:53:00,70.2,68.0,29.93,WNW,303,0.0,3.0,93,0.00,,,0.00,0,HR-IXP-WINDi_r2_v1.2,2013-09-12 10:53:00,
2013-09-12 05:58:00,70.1,67.9,29.93,West,270,1.0,6.0,93,0.00,,,0.00,0,HR-IXP-WINDi_r2_v1.2,2013-09-12 10:58:00,
2013-09-12 06:03:00,70.0,67.8,29.93,WNW,288,1.0,6.0,93,0.00,,,0.00,0,HR-IXP-WINDi_r2_v1.2,2013-09-12 11:03:00,
2013-09-12 06:08:00,69.9,67.7,29.93,WNW,297,0.0,3.0,93,0.00,,,0.00,0,HR-IXP-WINDi_r2_v1.2,2013-09-12 11:08:00,
2013-09-12 06:14:00,69.9,67.7,29.93,WNW,296,1.0,3.0,93,0.00,,,0.00,0,HR-IXP-WINDi_r2_v1.2,2013-09-12 11:14:00,
2013-09-12 06:19:00,69.8,67.3,29.94,WNW,296,0.0,2.0,92,0.00,,,0.00,0,HR-IXP-WINDi_r2_v1.2,2013-09-12 11:19:00,
2013-09-12 06:24:00,69.7,67.2,29.94,WNW,296,0.0,2.0,92,0.00,,,0.00,0,HR-IXP-WINDi_r2_v1.2,2013-09-12 11:24:00,
2013-09-12 06:29:00,69.5,66.7,29.94,West,279,0.0,3.0,91,0.00,,,0.00,0,HR-IXP-WINDi_r2_v1.2,2013-09-12 11:29:00,
2013-09-12 06:34:00,69.4,66.3,29.94,West,279,0.0,3.0,90,0.00,,,0.00,0,HR-IXP-WINDi_r2_v1.2,2013-09-12 11:34:00,
2013-09-12 06:39:00,69.2,65.8,29.94,West,279,0.0,1.0,89,0.00,,,0.00,5,HR-IXP-WINDi_r2_v1.2,2013-09-12 11:39:00,
2013-09-12 06:44:00,69.2,65.8,29.94,West,279,0.0,1.0,89,0.00,,,0.00,9,HR-IXP-WINDi_r2_v1.2,2013-09-12 11:44:00,
2013-09-12 06:49:00,69.1,65.7,29.94,West,279,0.0,2.0,89,0.00,,,0.00,14,HR-IXP-WINDi_r2_v1.2,2013-09-12 11:49:00,
2013-09-12 06:55:00,69.0,65.2,29.94,West,279,0.0,2.0,88,0.00,,,0.00,16,HR-IXP-WINDi_r2_v1.2,2013-09-12 11:55:00,
2013-09-12 07:00:00,69.0,65.2,29.94,West,279,0.0,1.0,88,0.00,,,0.00,23,HR-IXP-WINDi_r2_v1.2,2013-09-12 12:00:00,
2013-09-12 07:05:00,68.9,64.5,29.94,WNW,288,0.0,3.0,86,0.00,,,0.00,26,HR-IXP-WINDi_r2_v1.2,2013-09-12 12:05:00,
2013-09-12 07:10:00,68.9,64.5,29.94,WNW,288,0.0,3.0,86,0.00,,,0.00,30,HR-IXP-WINDi_r2_v1.2,2013-09-12 12:10:00,
2013-09-12 07:15:00,68.9,64.5,29.94,WNW,288,0.0,1.0,86,0.00,,,0.00,32,HR-IXP-WINDi_r2_v1.2,2013-09-12 12:15:00,
2013-09-12 07:21:00,69.0,64.2,29.94,WNW,288,0.0,1.0,85,0.00,,,0.00,39,HR-IXP-WINDi_r2_v1.2,2013-09-12 12:21:00,
2013-09-12 07:26:00,69.0,64.2,29.94,WNW,288,0.0,1.0,85,0.00,,,0.00,46,HR-IXP-WINDi_r2_v1.2,2013-09-12 12:26:00,
2013-09-12 07:31:00,69.0,64.2,29.94,WNW,288,0.0,1.0,85,0.00,,,0.00,47,HR-IXP-WINDi_r2_v1.2,2013-09-12 12:31:00,
2013-09-12 07:36:00,69.0,64.2,29.94,WNW,288,0.0,1.0,85,0.00,,,0.00,49,HR-IXP-WINDi_r2_v1.2,2013-09-12 12:36:00,
2013-09-12 07:41:00,69.0,63.9,29.94,WNW,288,0.0,1.0,84,0.00,,,0.00,51,HR-IXP-WINDi_r2_v1.2,2013-09-12 12:41:00,
2013-09-12 07:46:00,69.0,63.6,29.94,WNW,288,0.0,1.0,83,0.00,,,0.00,63,HR-IXP-WINDi_r2_v1.2,2013-09-12 12:46:00,
2013-09-12 07:51:00,69.0,63.6,29.94,WNW,287,0.0,1.0,83,0.00,,,0.00,74,HR-IXP-WINDi_r2_v1.2,2013-09-12 12:51:00,
2013-09-12 07:57:00,69.0,63.6,29.94,WNW,287,0.0,1.0,83,0.00,,,0.00,77,HR-IXP-WINDi_r2_v1.2,2013-09-12 12:57:00,
2013-09-12 08:02:00,69.1,63.3,29.94,West,269,0.0,2.0,82,0.00,,,0.00,79,HR-IXP-WINDi_r2_v1.2,2013-09-12 13:02:00,
2013-09-12 08:07:00,69.2,63.1,29.94,West,269,0.0,2.0,81,0.00,,,0.00,88,HR-IXP-WINDi_r2_v1.2,2013-09-12 13:07:00,
2013-09-12 08:12:00,69.2,62.7,29.94,West,269,0.0,0.0,80,0.00,,,0.00,84,HR-IXP-WINDi_r2_v1.2,2013-09-12 13:12:00,
2013-09-12 08:17:00,69.3,62.8,29.94,West,269,0.0,1.0,80,0.00,,,0.00,95,HR-IXP-WINDi_r2_v1.2,2013-09-12 13:17:00,
2013-09-12 08:23:00,69.4,62.9,29.94,West,269,0.0,1.0,80,0.00,,,0.00,81,HR-IXP-WINDi_r2_v1.2,2013-09-12 13:23:00,
2013-09-12 08:28:00,69.6,63.1,29.95,West,269,0.0,1.0,80,0.00,,,0.00,76,HR-IXP-WINDi_r2_v1.2,2013-09-12 13:28:00,
2013-09-12 08:33:00,69.6,63.1,29.95,West,269,0.0,1.0,80,0.00,,,0.00,95,HR-IXP-WINDi_r2_v1.2,2013-09-12 13:33:00,
2013-09-12 08:38:00,69.7,63.2,29.95,West,271,0.0,1.0,80,0.00,,,0.00,95,HR-IXP-WINDi_r2_v1.2,2013-09-12 13:38:00,
2013-09-12 08:43:00,69.9,63.4,29.95,West,271,0.0,1.0,80,0.00,,,0.00,123,HR-IXP-WINDi_r2_v1.2,2013-09-12 13:43:00,
2013-09-12 08:49:00,70.1,62.9,29.95,West,271,0.0,2.0,78,0.00,,,0.00,142,HR-IXP-WINDi_r2_v1.2,2013-09-12 13:49:00,
2013-09-12 08:54:00,70.4,63.2,29.95,West,276,0.0,2.0,78,0.00,,,0.00,239,HR-IXP-WINDi_r2_v1.2,2013-09-12 13:54:00,
2013-09-12 08:59:00,70.6,63.0,29.95,SW,221,0.0,1.0,77,0.00,,,0.00,236,HR-IXP-WINDi_r2_v1.2,2013-09-12 13:59:00,
2013-09-12 09:04:00,70.9,62.5,29.95,SW,221,0.0,1.0,75,0.00,,,0.00,225,HR-IXP-WINDi_r2_v1.2,2013-09-12 14:04:00,
2013-09-12 09:09:00,71.0,61.8,29.95,SW,221,0.0,1.0,73,0.00,,,0.00,206,HR-IXP-WINDi_r2_v1.2,2013-09-12 14:09:00,
2013-09-12 09:14:00,71.2,61.7,29.95,SW,221,0.0,0.0,72,0.00,,,0.00,260,HR-IXP-WINDi_r2_v1.2,2013-09-12 14:14:00,
2013-09-12 09:19:00,71.3,61.0,29.95,SW,221,0.0,1.0,70,0.00,,,0.00,148,HR-IXP-WINDi_r2_v1.2,2013-09-12 14:19:00,
2013-09-12 09:24:00,71.5,61.1,29.95,SW,221,0.0,1.0,70,0.00,,,0.00,239,HR-IXP-WINDi_r2_v1.2,2013-09-12 14:24:00,
2013-09-12 09:30:00,71.5,60.3,29.95,SW,221,0.0,1.0,68,0.00,,,0.00,160,HR-IXP-WINDi_r2_v1.2,2013-09-12 14:30:00,
2013-09-12 09:35:00,71.6,61.2,29.95,SW,221,0.0,1.0,70,0.00,,,0.00,142,HR-IXP-WINDi_r2_v1.2,2013-09-12 14:35:00,
2013-09-12 09:40:00,71.6,61.2,29.95,SW,221,0.0,1.0,70,0.00,,,0.00,162,HR-IXP-WINDi_r2_v1.2,2013-09-12 14:40:00,
2013-09-12 09:45:00,71.7,61.7,29.95,SW,221,0.0,1.0,71,0.00,,,0.00,114,HR-IXP-WINDi_r2_v1.2,2013-09-12 14:45:00,
2013-09-12 09:50:00,71.9,61.5,29.95,SW,219,0.0,1.0,70,0.00,,,0.00,585,HR-IXP-WINDi_r2_v1.2,2013-09-12 14:50:00,
2013-09-12 09:56:00,72.3,60.2,29.95,SW,219,0.0,1.0,66,0.00,,,0.00,557,HR-IXP-WINDi_r2_v1.2,2013-09-12 14:56:00,
2013-09-12 10:01:00,72.7,59.8,29.95,East,93,0.0,1.0,64,0.00,,,0.00,608,HR-IXP-WINDi_r2_v1.2,2013-09-12 15:01:00,
2013-09-12 10:06:00,73.1,58.8,29.95,ENE,64,0.0,4.0,61,0.00,,,0.00,610,HR-IXP-WINDi_r2_v1.2,2013-09-12 15:06:00,
2013-09-12 10:11:00,73.7,59.4,29.95,NE,54,0.0,4.0,61,0.00,,,0.00,626,HR-IXP-WINDi_r2_v1.2,2013-09-12 15:11:00,
2013-09-12 10:16:00,74.3,59.9,29.95,ENE,57,0.0,2.0,61,0.00,,,0.00,645,HR-IXP-WINDi_r2_v1.2,2013-09-12 15:16:00,
2013-09-12 10:21:00,75.1,59.3,29.95,ENE,57,1.0,2.0,58,0.00,,,0.00,649,HR-IXP-WINDi_r2_v1.2,2013-09-12 15:21:00,
2013-09-12 10:27:00,75.7,57.8,29.94,NE,53,0.0,2.0,54,0.00,,,0.00,668,HR-IXP-WINDi_r2_v1.2,2013-09-12 15:27:00,
2013-09-12 10:32:00,75.8,58.4,29.95,WNW,293,0.0,2.0,55,0.00,,,0.00,580,HR-IXP-WINDi_r2_v1.2,2013-09-12 15:32:00,
2013-09-12 10:37:00,76.0,58.6,29.95,WNW,294,0.0,2.0,55,0.00,,,0.00,327,HR-IXP-WINDi_r2_v1.2,2013-09-12 15:37:00,
2013-09-12 10:42:00,76.2,57.8,29.95,WNW,294,0.0,3.0,53,0.00,,,0.00,687,HR-IXP-WINDi_r2_v1.2,2013-09-12 15:42:00,
2013-09-12 10:47:00,76.5,59.1,29.94,WNW,293,1.0,3.0,55,0.00,,,0.00,715,HR-IXP-WINDi_r2_v1.2,2013-09-12 15:47:00,
2013-09-12 10:53:00,76.9,58.4,29.95,WNW,297,0.0,3.0,53,0.00,,,0.00,355,HR-IXP-WINDi_r2_v1.2,2013-09-12 15:53:00,
2013-09-12 10:58:00,77.1,59.6,29.95,WNW,297,0.0,3.0,55,0.00,,,0.00,241,HR-IXP-WINDi_r2_v1.2,2013-09-12 15:58:00,
2013-09-12 11:03:00,77.4,60.4,29.95,WNW,293,2.0,3.0,56,0.00,,,0.00,339,HR-IXP-WINDi_r2_v1.2,2013-09-12 16:03:00,
2013-09-12 11:08:00,77.6,61.1,29.94,NW,326,0.0,3.0,57,0.00,,,0.00,485,HR-IXP-WINDi_r2_v1.2,2013-09-12 16:08:00,
2013-09-12 11:13:00,77.8,61.8,29.94,NW,326,1.0,3.0,58,0.00,,,0.00,155,HR-IXP-WINDi_r2_v1.2,2013-09-12 16:13:00,
2013-09-12 11:18:00,78.2,63.1,29.94,NNW,348,0.0,1.0,60,0.00,,,0.00,353,HR-IXP-WINDi_r2_v1.2,2013-09-12 16:18:00,
2013-09-12 11:23:00,78.7,61.6,29.94,North,9,1.0,2.0,56,0.00,,,0.00,214,HR-IXP-WINDi_r2_v1.2,2013-09-12 16:23:00,
2013-09-12 11:28:00,78.9,61.8,29.94,WNW,292,4.0,5.0,56,0.00,,,0.00,250,HR-IXP-WINDi_r2_v1.2,2013-09-12 16:28:00,
2013-09-12 11:34:00,78.8,59.6,29.94,WNW,295,0.0,5.0,52,0.00,,,0.00,322,HR-IXP-WINDi_r2_v1.2,2013-09-12 16:34:00,
2013-09-12 11:39:00,78.8,59.6,29.94,WNW,299,0.0,5.0,52,0.00,,,0.00,265,HR-IXP-WINDi_r2_v1.2,2013-09-12 16:39:00,
2013-09-12 11:44:00,78.8,59.1,29.94,WNW,284,2.0,5.0,51,0.00,,,0.00,805,HR-IXP-WINDi_r2_v1.2,2013-09-12 16:44:00,
2013-09-12 11:49:00,78.8,59.6,29.94,WNW,294,5.0,7.0,52,0.00,,,0.00,763,HR-IXP-WINDi_r2_v1.2,2013-09-12 16:49:00,
2013-09-12 11:54:00,79.2,61.1,29.94,WNW,284,0.0,7.0,54,0.00,,,0.00,819,HR-IXP-WINDi_r2_v1.2,2013-09-12 16:54:00,
2013-09-12 11:59:00,79.8,62.1,29.93,WNW,285,0.0,7.0,55,0.00,,,0.00,810,HR-IXP-WINDi_r2_v1.2,2013-09-12 16:59:00,
2013-09-12 12:04:00,80.4,63.2,29.93,NE,53,0.0,3.0,56,0.00,,,0.00,788,HR-IXP-WINDi_r2_v1.2,2013-09-12 17:04:00,
2013-09-12 12:09:00,80.9,59.9,29.92,WNW,293,0.0,3.0,49,0.00,,,0.00,858,HR-IXP-WINDi_r2_v1.2,2013-09-12 17:09:00,
2013-09-12 12:14:00,81.2,60.2,29.92,West,281,1.0,3.0,49,0.00,,,0.00,779,HR-IXP-WINDi_r2_v1.2,2013-09-12 17:14:00,
2013-09-12 12:19:00,81.1,58.9,29.92,WNW,289,2.0,4.0,47,0.00,,,0.00,798,HR-IXP-WINDi_r2_v1.2,2013-09-12 17:19:00,
2013-09-12 12:25:00,81.2,58.4,29.91,WNW,289,3.0,4.0,46,0.00,,,0.00,817,HR-IXP-WINDi_r2_v1.2,2013-09-12 17:25:00,
2013-09-12 12:30:00,81.1,58.9,29.91,WNW,283,3.0,4.0,47,0.00,,,0.00,772,HR-IXP-WINDi_r2_v1.2,2013-09-12 17:30:00,
2013-09-12 12:35:00,81.0,59.4,29.91,WNW,287,0.0,4.0,48,0.00,,,0.00,870,HR-IXP-WINDi_r2_v1.2,2013-09-12 17:35:00,
2013-09-12 12:40:00,81.3,58.5,29.91,SSW,202,4.0,6.0,46,0.00,,,0.00,831,HR-IXP-WINDi_r2_v1.2,2013-09-12 17:40:00,
2013-09-12 12:45:00,81.3,57.9,29.90,WNW,291,1.0,8.0,45,0.00,,,0.00,828,HR-IXP-WINDi_r2_v1.2,2013-09-12 17:45:00,
2013-09-12 12:51:00,81.5,58.7,29.90,WNW,292,1.0,8.0,46,0.00,,,0.00,773,HR-IXP-WINDi_r2_v1.2,2013-09-12 17:51:00,
2013-09-12 12:56:00,81.9,60.2,29.90,WNW,299,0.0,5.0,48,0.00,,,0.00,782,HR-IXP-WINDi_r2_v1.2,2013-09-12 17:56:00,
2013-09-12 13:01:00,82.3,58.8,29.90,West,279,0.0,8.0,45,0.00,,,0.00,805,HR-IXP-WINDi_r2_v1.2,2013-09-12 18:01:00,
2013-09-12 13:06:00,82.4,59.5,29.90,West,277,0.0,8.0,46,0.00,,,0.00,123,HR-IXP-WINDi_r2_v1.2,2013-09-12 18:06:00,
2013-09-12 13:11:00,82.3,59.4,29.89,WNW,296,1.0,4.0,46,0.00,,,0.00,838,HR-IXP-WINDi_r2_v1.2,2013-09-12 18:11:00,
2013-09-12 13:17:00,82.1,58.6,29.89,WNW,287,2.0,8.0,45,0.00,,,0.00,689,HR-IXP-WINDi_r2_v1.2,2013-09-12 18:17:00,
2013-09-12 13:22:00,82.1,58.6,29.88,WNW,292,0.0,8.0,45,0.00,,,0.00,429,HR-IXP-WINDi_r2_v1.2,2013-09-12 18:22:00,
2013-09-12 13:27:00,82.2,59.9,29.89,WNW,288,6.0,7.0,47,0.00,,,0.00,162,HR-IXP-WINDi_r2_v1.2,2013-09-12 18:27:00,
2013-09-12 13:32:00,81.7,59.5,29.88,West,280,5.0,10.0,47,0.00,,,0.00,236,HR-IXP-WINDi_r2_v1.2,2013-09-12 18:32:00,
2013-09-12 13:37:00,81.4,59.8,29.88,WNW,292,0.0,10.0,48,0.00,,,0.00,220,HR-IXP-WINDi_r2_v1.2,2013-09-12 18:37:00,
2013-09-12 13:42:00,81.2,59.6,29.88,WNW,289,3.0,9.0,48,0.00,,,0.00,72,HR-IXP-WINDi_r2_v1.2,2013-09-12 18:42:00,
2013-09-12 13:48:00,80.7,59.7,29.88,WNW,298,0.0,9.0,49,0.00,,,0.00,148,HR-IXP-WINDi_r2_v1.2,2013-09-12 18:48:00,
2013-09-12 13:53:00,80.6,60.8,29.88,NW,311,2.0,9.0,51,0.00,,,0.00,371,HR-IXP-WINDi_r2_v1.2,2013-09-12 18:53:00,
2013-09-12 13:58:00,80.9,60.5,29.87,WNW,296,0.0,6.0,50,0.00,,,0.00,622,HR-IXP-WINDi_r2_v1.2,2013-09-12 18:58:00,
2013-09-12 14:03:00,81.1,60.1,29.87,NW,309,2.0,12.0,49,0.00,,,0.00,91,HR-IXP-WINDi_r2_v1.2,2013-09-12 19:03:00,
2013-09-12 14:08:00,80.8,59.8,29.87,WNW,300,2.0,12.0,49,0.00,,,0.00,83,HR-IXP-WINDi_r2_v1.2,2013-09-12 19:08:00,
2013-09-12 14:13:00,80.5,60.1,29.86,West,281,0.0,7.0,50,0.00,,,0.00,40,HR-IXP-WINDi_r2_v1.2,2013-09-12 19:13:00,
2013-09-12 14:18:00,80.1,60.3,29.87,WNW,297,2.0,7.0,51,0.00,,,0.00,30,HR-IXP-WINDi_r2_v1.2,2013-09-12 19:18:00,
2013-09-12 14:23:00,79.5,60.3,29.87,NW,325,0.0,5.0,52,0.00,,,0.00,83,HR-IXP-WINDi_r2_v1.2,2013-09-12 19:23:00,
2013-09-12 14:28:00,79.1,61.0,29.86,NNW,327,0.0,5.0,54,0.00,,,0.00,86,HR-IXP-WINDi_r2_v1.2,2013-09-12 19:28:00,
2013-09-12 14:34:00,78.9,61.3,29.86,SE,142,1.0,4.0,55,0.00,,,0.00,60,HR-IXP-WINDi_r2_v1.2,2013-09-12 19:34:00,
2013-09-12 14:39:00,78.6,60.5,29.86,NW,321,1.0,4.0,54,0.00,,,0.00,128,HR-IXP-WINDi_r2_v1.2,2013-09-12 19:39:00,
2013-09-12 14:44:00,78.4,60.8,29.86,WNW,288,2.0,5.0,55,0.00,,,0.00,162,HR-IXP-WINDi_r2_v1.2,2013-09-12 19:44:00,
2013-09-12 14:49:00,78.4,60.8,29.86,NW,316,0.0,5.0,55,0.00,,,0.00,113,HR-IXP-WINDi_r2_v1.2,2013-09-12 19:49:00,
2013-09-12 14:54:00,78.4,60.8,29.86,NW,305,0.0,4.0,55,0.00,,,0.00,195,HR-IXP-WINDi_r2_v1.2,2013-09-12 19:54:00,
2013-09-12 15:00:00,78.5,61.5,29.86,NW,317,0.0,5.0,56,0.00,,,0.00,72,HR-IXP-WINDi_r2_v1.2,2013-09-12 20:00:00,
2013-09-12 15:05:00,78.5,60.9,29.86,West,276,0.0,5.0,55,0.00,,,0.00,74,HR-IXP-WINDi_r2_v1.2,2013-09-12 20:05:00,
2013-09-12 15:10:00,78.3,60.8,29.86,SE,132,0.0,4.0,55,0.00,,,0.00,102,HR-IXP-WINDi_r2_v1.2,2013-09-12 20:10:00,
2013-09-12 15:15:00,78.0,60.0,29.87,NW,317,1.0,5.0,54,0.00,,,0.00,109,HR-IXP-WINDi_r2_v1.2,2013-09-12 20:15:00,
2013-09-12 15:20:00,77.8,59.8,29.87,NNE,25,0.0,5.0,54,0.00,,,0.00,125,HR-IXP-WINDi_r2_v1.2,2013-09-12 20:20:00,
2013-09-12 15:26:00,77.6,60.1,29.87,NW,307,2.0,5.0,55,0.00,,,0.00,155,HR-IXP-WINDi_r2_v1.2,2013-09-12 20:26:00,
2013-09-12 15:31:00,77.5,60.5,29.87,NNW,333,0.0,5.0,56,0.00,,,0.00,221,HR-IXP-WINDi_r2_v1.2,2013-09-12 20:31:00,
2013-09-12 15:36:00,77.4,60.4,29.86,WNW,290,2.0,3.0,56,0.00,,,0.00,62,HR-IXP-WINDi_r2_v1.2,2013-09-12 20:36:00,
2013-09-12 15:41:00,77.4,59.9,29.86,NW,309,0.0,7.0,55,0.00,,,0.00,54,HR-IXP-WINDi_r2_v1.2,2013-09-12 20:41:00,
2013-09-12 15:47:00,77.2,60.7,29.87,WNW,298,3.0,7.0,57,0.00,,,0.00,105,HR-IXP-WINDi_r2_v1.2,2013-09-12 20:47:00,
2013-09-12 15:52:00,77.1,60.1,29.86,NW,309,1.0,7.0,56,0.00,,,0.00,104,HR-IXP-WINDi_r2_v1.2,2013-09-12 20:52:00,
2013-09-12 15:57:00,77.1,59.6,29.87,NNW,328,1.0,4.0,55,0.00,,,0.00,95,HR-IXP-WINDi_r2_v1.2,2013-09-12 20:57:00,
2013-09-12 16:02:00,77.1,60.1,29.87,WNW,298,5.0,7.0,56,0.00,,,0.00,193,HR-IXP-WINDi_r2_v1.2,2013-09-12 21:02:00,
2013-09-12 16:07:00,76.9,60.0,29.86,NW,317,0.0,7.0,56,0.00,,,0.00,69,HR-IXP-WINDi_r2_v1.2,2013-09-12 21:07:00,
2013-09-12 16:13:00,76.9,60.5,29.86,NNW,331,1.0,7.0,57,0.00,,,0.00,53,HR-IXP-WINDi_r2_v1.2,2013-09-12 21:13:00,
2013-09-12 16:18:00,76.8,61.3,29.87,NW,320,4.0,4.0,59,0.00,,,0.00,53,HR-IXP-WINDi_r2_v1.2,2013-09-12 21:18:00,
2013-09-12 16:23:00,76.4,62.4,29.87,NW,304,0.0,4.0,62,0.00,,,0.00,56,HR-IXP-WINDi_r2_v1.2,2013-09-12 21:23:00,
2013-09-12 16:28:00,75.9,62.3,29.87,NW,309,0.0,4.0,63,0.00,,,0.00,153,HR-IXP-WINDi_r2_v1.2,2013-09-12 21:28:00,
2013-09-12 16:33:00,75.5,62.4,29.87,NNW,332,2.0,4.0,64,0.00,,,0.00,102,HR-IXP-WINDi_r2_v1.2,2013-09-12 21:33:00,
2013-09-12 16:39:00,75.1,62.0,29.87,NNW,332,0.0,5.0,64,0.00,,,0.00,120,HR-IXP-WINDi_r2_v1.2,2013-09-12 21:39:00,
2013-09-12 16:44:00,74.8,62.2,29.89,NW,306,7.0,7.0,65,0.00,,,0.00,28,HR-IXP-WINDi_r2_v1.2,2013-09-12 21:44:00,
2013-09-12 16:49:00,72.2,63.8,29.89,NW,313,4.0,14.0,75,0.27,,,0.06,118,HR-IXP-WINDi_r2_v1.2,2013-09-12 21:49:00,
2013-09-12 16:55:00,69.9,64.1,29.89,NNW,333,0.0,14.0,82,0.09,,,0.06,123,HR-IXP-WINDi_r2_v1.2,2013-09-12 21:55:00,
2013-09-12 17:00:00,68.8,64.4,29.89,WNW,286,0.0,4.0,86,0.05,,,0.06,84,HR-IXP-WINDi_r2_v1.2,2013-09-12 22:00:00,
2013-09-12 17:05:00,68.1,63.4,29.90,North,9,5.0,7.0,85,0.04,,,0.06,74,HR-IXP-WINDi_r2_v1.2,2013-09-12 22:05:00,
2013-09-12 17:10:00,67.4,63.0,29.90,NW,314,1.0,7.0,86,0.00,,,0.06,81,HR-IXP-WINDi_r2_v1.2,2013-09-12 22:10:00,
2013-09-12 17:15:00,66.8,62.7,29.91,WSW,255,0.0,6.0,87,0.00,,,0.06,40,HR-IXP-WINDi_r2_v1.2,2013-09-12 22:15:00,
2013-09-12 17:20:00,66.4,62.3,29.91,WSW,255,0.0,1.0,87,0.00,,,0.06,44,HR-IXP-WINDi_r2_v1.2,2013-09-12 22:20:00,
2013-09-12 17:26:00,65.9,61.2,29.91,NW,309,0.0,5.0,85,0.00,,,0.06,40,HR-IXP-WINDi_r2_v1.2,2013-09-12 22:26:00,
2013-09-12 17:31:00,65.6,61.6,29.92,NW,309,0.0,5.0,87,0.00,,,0.06,46,HR-IXP-WINDi_r2_v1.2,2013-09-12 22:31:00,
2013-09-12 17:36:00,65.3,61.6,29.92,NW,306,0.0,3.0,88,0.00,,,0.06,30,HR-IXP-WINDi_r2_v1.2,2013-09-12 22:36:00,
2013-09-12 17:42:00,65.2,61.5,29.93,North,5,0.0,7.0,88,0.00,,,0.06,23,HR-IXP-WINDi_r2_v1.2,2013-09-12 22:42:00,
2013-09-12 17:47:00,65.2,61.2,29.93,WNW,289,1.0,7.0,87,0.00,,,0.06,30,HR-IXP-WINDi_r2_v1.2,2013-09-12 22:47:00,
2013-09-12 17:52:00,65.2,61.5,29.93,NNW,328,0.0,6.0,88,0.00,,,0.06,76,HR-IXP-WINDi_r2_v1.2,2013-09-12 22:52:00,
2013-09-12 17:57:00,65.2,60.8,29.93,NNW,347,0.0,5.0,86,0.00,,,0.06,37,HR-IXP-WINDi_r2_v1.2,2013-09-12 22:57:00,
2013-09-12 18:02:00,65.2,60.8,29.93,NW,317,0.0,5.0,86,0.00,,,0.06,26,HR-IXP-WINDi_r2_v1.2,2013-09-12 23:02:00,
2013-09-12 18:07:00,65.2,60.5,29.93,NW,317,0.0,3.0,85,0.00,,,0.06,23,HR-IXP-WINDi_r2_v1.2,2013-09-12 23:07:00,
2013-09-12 18:12:00,65.2,60.5,29.93,WSW,246,0.0,3.0,85,0.00,,,0.06,16,HR-IXP-WINDi_r2_v1.2,2013-09-12 23:12:00,
2013-09-12 18:18:00,65.1,60.1,29.93,West,277,0.0,3.0,84,0.00,,,0.06,18,HR-IXP-WINDi_r2_v1.2,2013-09-12 23:18:00,
2013-09-12 18:23:00,65.1,60.1,29.93,NNW,339,0.0,2.0,84,0.00,,,0.06,23,HR-IXP-WINDi_r2_v1.2,2013-09-12 23:23:00,
2013-09-12 18:28:00,65.0,60.0,29.94,NNW,339,0.0,2.0,84,0.00,,,0.06,19,HR-IXP-WINDi_r2_v1.2,2013-09-12 23:28:00,
2013-09-12 18:33:00,65.1,60.1,29.94,NNW,339,0.0,1.0,84,0.00,,,0.06,19,HR-IXP-WINDi_r2_v1.2,2013-09-12 23:33:00,
2013-09-12 18:38:00,65.1,60.1,29.94,NNW,329,0.0,2.0,84,0.00,,,0.06,16,HR-IXP-WINDi_r2_v1.2,2013-09-12 23:38:00,
2013-09-12 18:44:00,65.2,59.8,29.94,NNW,329,0.0,5.0,83,0.00,,,0.06,9,HR-IXP-WINDi_r2_v1.2,2013-09-12 23:44:00,
2013-09-12 18:49:00,65.2,59.8,29.94,West,280,3.0,5.0,83,0.00,,,0.06,5,HR-IXP-WINDi_r2_v1.2,2013-09-12 23:49:00,
2013-09-12 18:54:00,65.2,59.8,29.94,WNW,291,2.0,5.0,83,0.00,,,0.06,0,HR-IXP-WINDi_r2_v1.2,2013-09-12 23:54:00,
2013-09-12 19:00:00,65.2,60.2,29.94,WNW,291,0.0,5.0,84,0.00,,,0.06,0,HR-IXP-WINDi_r2_v1.2,2013-09-13 00:00:00,
2013-09-12 19:05:00,65.1,59.7,29.94,NW,323,0.0,2.0,83,0.00,,,0.06,0,HR-IXP-WINDi_r2_v1.2,2013-09-13 00:05:00,
2013-09-12 19:10:00,64.9,59.5,29.95,NW,319,1.0,5.0,83,0.00,,,0.06,0,HR-IXP-WINDi_r2_v1.2,2013-09-13 00:10:00,
2013-09-12 19:15:00,64.9,59.5,29.95,WNW,287,0.0,5.0,83,0.00,,,0.06,0,HR-IXP-WINDi_r2_v1.2,2013-09-13 00:15:00,
2013-09-12 19:20:00,64.8,59.1,29.95,West,268,0.0,5.0,82,0.00,,,0.06,0,HR-IXP-WINDi_r2_v1.2,2013-09-13 00:20:00,
2013-09-12 19:25:00,64.6,58.9,29.96,NNW,342,0.0,2.0,82,0.00,,,0.06,0,HR-IXP-WINDi_r2_v1.2,2013-09-13 00:25:00,
2013-09-12 19:30:00,64.5,58.8,29.96,NW,321,0.0,7.0,82,0.00,,,0.06,0,HR-IXP-WINDi_r2_v1.2,2013-09-13 00:30:00,
2013-09-12 19:36:00,64.4,58.4,29.96,WSW,250,0.0,7.0,81,0.00,,,0.06,0,HR-IXP-WINDi_r2_v1.2,2013-09-13 00:36:00,
2013-09-12 19:41:00,64.2,57.8,29.97,NNW,337,1.0,4.0,80,0.00,,,0.06,0,HR-IXP-WINDi_r2_v1.2,2013-09-13 00:41:00,
2013-09-12 19:46:00,64.1,57.7,29.97,NNW,343,0.0,4.0,80,0.00,,,0.06,0,HR-IXP-WINDi_r2_v1.2,2013-09-13 00:46:00,
2013-09-12 19:51:00,64.0,57.3,29.97,WSW,252,0.0,1.0,79,0.00,,,0.06,0,HR-IXP-WINDi_r2_v1.2,2013-09-13 00:51:00,
2013-09-12 19:57:00,63.8,56.7,29.97,WNW,291,0.0,2.0,78,0.00,,,0.06,0,HR-IXP-WINDi_r2_v1.2,2013-09-13 00:57:00,
2013-09-12 20:02:00,63.7,56.6,29.97,SW,221,0.0,3.0,78,0.00,,,0.06,0,HR-IXP-WINDi_r2_v1.2,2013-09-13 01:02:00,
2013-09-12 20:07:00,63.6,56.2,29.97,SW,221,0.0,3.0,77,0.00,,,0.06,0,HR-IXP-WINDi_r2_v1.2,2013-09-13 01:07:00,
2013-09-12 20:12:00,63.5,56.1,29.97,SW,221,0.0,1.0,77,0.00,,,0.06,0,HR-IXP-WINDi_r2_v1.2,2013-09-13 01:12:00,
2013-09-12 20:17:00,63.4,56.0,29.98,NW,309,0.0,2.0,77,0.00,,,0.06,0,HR-IXP-WINDi_r2_v1.2,2013-09-13 01:17:00,
2013-09-12 20:22:00,63.3,56.3,29.98,NW,313,0.0,2.0,78,0.00,,,0.06,0,HR-IXP-WINDi_r2_v1.2,2013-09-13 01:22:00,
2013-09-12 20:27:00,63.3,56.3,29.98,NW,313,0.0,1.0,78,0.00,,,0.06,0,HR-IXP-WINDi_r2_v1.2,2013-09-13 01:27:00,
2013-09-12 20:33:00,63.3,56.3,29.98,NW,313,0.0,1.0,78,0.00,,,0.06,0,HR-IXP-WINDi_r2_v1.2,2013-09-13 01:33:00,
2013-09-12 20:38:00,63.3,55.5,29.98,NW,310,0.0,2.0,76,0.00,,,0.06,0,HR-IXP-WINDi_r2_v1.2,2013-09-13 01:38:00,
2013-09-12 20:43:00,63.3,55.2,29.99,NW,318,0.0,2.0,75,0.00,,,0.06,0,HR-IXP-WINDi_r2_v1.2,2013-09-13 01:43:00,
2013-09-12 20:48:00,63.3,55.2,29.99,NW,309,0.0,3.0,75,0.00,,,0.06,0,HR-IXP-WINDi_r2_v1.2,2013-09-13 01:48:00,
2013-09-12 20:53:00,63.3,55.2,29.99,East,92,0.0,5.0,75,0.00,,,0.06,0,HR-IXP-WINDi_r2_v1.2,2013-09-13 01:53:00,
2013-09-12 20:59:00,63.3,55.5,29.99,SW,233,0.0,5.0,76,0.00,,,0.06,0,HR-IXP-WINDi_r2_v1.2,2013-09-13 01:59:00,
2013-09-12 21:04:00,63.3,55.9,29.99,WNW,302,0.0,3.0,77,0.00,,,0.06,0,HR-IXP-WINDi_r2_v1.2,2013-09-13 02:04:00,
2013-09-12 21:09:00,63.3,56.3,29.99,WSW,253,0.0,2.0,78,0.00,,,0.06,0,HR-IXP-WINDi_r2_v1.2,2013-09-13 02:09:00,
2013-09-12 21:14:00,63.2,56.2,29.99,NNW,347,0.0,1.0,78,0.00,,,0.06,0,HR-IXP-WINDi_r2_v1.2,2013-09-13 02:14:00,
2013-09-12 21:19:00,63.1,56.1,29.99,NNW,337,0.0,5.0,78,0.00,,,0.06,0,HR-IXP-WINDi_r2_v1.2,2013-09-13 02:19:00,
2013-09-12 21:24:00,63.1,56.4,29.99,West,276,0.0,5.0,79,0.00,,,0.06,0,HR-IXP-WINDi_r2_v1.2,2013-09-13 02:24:00,
2013-09-12 21:30:00,63.1,56.4,29.99,WNW,282,0.0,2.0,79,0.00,,,0.06,0,HR-IXP-WINDi_r2_v1.2,2013-09-13 02:30:00,
2013-09-12 21:35:00,63.0,56.3,29.99,North,5,0.0,5.0,79,0.00,,,0.06,0,HR-IXP-WINDi_r2_v1.2,2013-09-13 02:35:00,
2013-09-12 21:40:00,63.0,56.3,29.99,NW,312,0.0,5.0,79,0.00,,,0.06,0,HR-IXP-WINDi_r2_v1.2,2013-09-13 02:40:00,
2013-09-12 21:45:00,63.0,56.3,29.99,North,5,0.0,4.0,79,0.00,,,0.06,0,HR-IXP-WINDi_r2_v1.2,2013-09-13 02:45:00,
2013-09-12 21:50:00,63.0,56.3,29.99,NNW,327,0.0,4.0,79,0.00,,,0.06,0,HR-IXP-WINDi_r2_v1.2,2013-09-13 02:50:00,
2013-09-12 21:55:00,62.9,55.9,29.99,NNW,327,0.0,2.0,78,0.00,,,0.06,0,HR-IXP-WINDi_r2_v1.2,2013-09-13 02:55:00,
2013-09-12 22:00:00,62.9,55.9,29.99,North,5,0.0,3.0,78,0.00,,,0.06,0,HR-IXP-WINDi_r2_v1.2,2013-09-13 03:00:00,
2013-09-12 22:06:00,62.8,55.8,29.99,NNE,15,0.0,3.0,78,0.00,,,0.06,0,HR-IXP-WINDi_r2_v1.2,2013-09-13 03:06:00,
2013-09-12 22:11:00,62.8,55.8,29.99,NE,45,0.0,4.0,78,0.00,,,0.06,0,HR-IXP-WINDi_r2_v1.2,2013-09-13 03:11:00,
2013-09-12 22:16:00,62.8,55.4,29.99,East,82,0.0,7.0,77,0.00,,,0.06,0,HR-IXP-WINDi_r2_v1.2,2013-09-13 03:16:00,
2013-09-12 22:21:00,62.8,55.8,30.00,NW,309,0.0,7.0,78,0.00,,,0.06,0,HR-IXP-WINDi_r2_v1.2,2013-09-13 03:21:00,
2013-09-12 22:27:00,62.7,55.3,29.99,East,86,0.0,4.0,77,0.00,,,0.06,0,HR-IXP-WINDi_r2_v1.2,2013-09-13 03:27:00,
2013-09-12 22:32:00,62.7,55.0,30.00,North,350,0.0,3.0,76,0.00,,,0.06,0,HR-IXP-WINDi_r2_v1.2,2013-09-13 03:32:00,
2013-09-12 22:37:00,62.6,54.9,30.00,NE,44,0.0,3.0,76,0.00,,,0.06,0,HR-IXP-WINDi_r2_v1.2,2013-09-13 03:37:00,
2013-09-12 22:42:00,62.5,54.8,30.00,NW,309,0.0,3.0,76,0.00,,,0.06,0,HR-IXP-WINDi_r2_v1.2,2013-09-13 03:42:00,
2013-09-12 22:48:00,62.4,54.7,30.01,WSW,250,0.0,4.0,76,0.00,,,0.06,0,HR-IXP-WINDi_r2_v1.2,2013-09-13 03:48:00,
2013-09-12 22:53:00,62.2,54.1,30.01,ENE,68,0.0,5.0,75,0.00,,,0.06,0,HR-IXP-WINDi_r2_v1.2,2013-09-13 03:53:00,
2013-09-12 22:58:00,62.2,54.5,30.01,WSW,242,0.0,5.0,76,0.00,,,0.06,0,HR-IXP-WINDi_r2_v1.2,2013-09-13 03:58:00,
2013-09-12 23:01:00,62.1,54.4,30.01,North,355,0.0,5.0,76,0.00,,,0.06,0,HR-IXP-WINDi_r2_v1.2,2013-09-13 04:01:00,
2013-09-12 23:06:00,62.0,53.9,30.01,North,10,0.0,4.0,75,0.00,,,0.06,0,HR-IXP-WINDi_r2_v1.2,2013-09-13 04:06:00,
2013-09-12 23:11:00,62.0,53.9,30.01,NNE,31,0.0,3.0,75,0.00,,,0.06,0,HR-IXP-WINDi_r2_v1.2,2013-09-13 04:11:00,
2013-09-12 23:16:00,61.9,53.8,30.01,NE,55,0.0,7.0,75,0.00,,,0.06,0,HR-IXP-WINDi_r2_v1.2,2013-09-13 04:16:00,
2013-09-12 23:22:00,61.8,54.1,30.01,WSW,251,0.0,7.0,76,0.00,,,0.06,0,HR-IXP-WINDi_r2_v1.2,2013-09-13 04:22:00,
2013-09-12 23:27:00,61.8,54.1,30.02,NNE,13,0.0,1.0,76,0.00,,,0.06,0,HR-IXP-WINDi_r2_v1.2,2013-09-13 04:27:00,
2013-09-12 23:32:00,61.8,54.1,30.02,ENE,68,0.0,1.0,76,0.00,,,0.06,0,HR-IXP-WINDi_r2_v1.2,2013-09-13 04:32:00,
2013-09-12 23:37:00,61.7,54.0,30.02,ENE,67,0.0,1.0,76,0.00,,,0.06,0,HR-IXP-WINDi_r2_v1.2,2013-09-13 04:37:00,
2013-09-12 23:42:00,61.6,53.9,30.02,NNE,20,0.0,3.0,76,0.00,,,0.06,0,HR-IXP-WINDi_r2_v1.2,2013-09-13 04:42:00,
2013-09-12 23:48:00,61.6,53.9,30.02,NW,304,0.0,4.0,76,0.00,,,0.06,0,HR-IXP-WINDi_r2_v1.2,2013-09-13 04:48:00,
2013-09-12 23:53:00,61.5,53.8,30.02,NE,51,0.0,4.0,76,0.00,,,0.06,0,HR-IXP-WINDi_r2_v1.2,2013-09-13 04:53:00,
2013-09-12 23:58:00,61.5,53.8,30.02,West,276,0.0,3.0,76,0.00,,,0.06,0,HR-IXP-WINDi_r2_v1.2,2013-09-13 04:58:00,